createdAt,value
2019-05-18T00:01:11.927Z,18.00
2019-05-18T00:03:43.817Z,17.99
2019-05-18T00:06:15.676Z,17.96
2019-05-18T00:08:47.449Z,17.91
2019-05-18T00:11:18.902Z,17.88
2019-05-18T00:13:50.618Z,17.86
2019-05-18T00:16:22.214Z,17.85
2019-05-18T00:18:53.976Z,17.84
2019-05-18T00:21:25.582Z,17.78
2019-05-18T00:23:57.416Z,17.78
2019-05-18T00:26:29.177Z,17.73
2019-05-18T00:29:00.768Z,17.74
2019-05-18T00:31:32.352Z,17.69
2019-05-18T00:34:04.375Z,17.70
2019-05-18T00:36:35.558Z,17.70
2019-05-18T00:39:07.534Z,17.65
2019-05-18T00:41:39.088Z,17.64
2019-05-18T00:44:10.696Z,17.66
2019-05-18T00:46:42.266Z,17.60
2019-05-18T00:49:14.247Z,17.58
2019-05-18T00:51:45.804Z,17.49
2019-05-18T00:54:17.564Z,17.43
2019-05-18T00:56:49.028Z,17.42
2019-05-18T00:59:20.832Z,17.32
2019-05-18T01:01:52.563Z,17.23
2019-05-18T01:04:24.694Z,17.25
2019-05-18T01:06:56.411Z,17.14
2019-05-18T01:09:28.349Z,17.12
2019-05-18T01:12:00.069Z,17.09
2019-05-18T01:14:31.983Z,17.06
2019-05-18T01:17:03.895Z,17.04
2019-05-18T01:19:35.445Z,17.01
2019-05-18T01:22:07.148Z,16.97
2019-05-18T01:24:38.661Z,16.95
2019-05-18T01:27:10.696Z,16.89
2019-05-18T01:29:42.681Z,16.85
2019-05-18T01:32:14.593Z,16.78
2019-05-18T01:34:46.414Z,16.72
2019-05-18T01:37:18.202Z,16.64
2019-05-18T01:39:49.812Z,16.58
2019-05-18T01:42:21.679Z,16.56
2019-05-18T01:44:53.161Z,16.49
2019-05-18T01:47:25.131Z,16.47
2019-05-18T01:49:57.057Z,16.42
2019-05-18T01:52:28.741Z,16.39
2019-05-18T01:55:00.261Z,16.39
2019-05-18T01:57:32.255Z,16.40
2019-05-18T02:00:05.365Z,16.43
2019-05-18T02:02:37.271Z,16.44
2019-05-18T02:05:09.531Z,16.46
2019-05-18T02:07:40.909Z,16.44
2019-05-18T02:10:12.885Z,16.46
2019-05-18T02:12:44.405Z,16.49
2019-05-18T02:15:16.275Z,16.55
2019-05-18T02:17:47.927Z,16.57
2019-05-18T02:20:19.723Z,16.61
2019-05-18T02:22:51.090Z,16.63
2019-05-18T02:25:22.619Z,16.65
2019-05-18T02:27:54.270Z,16.79
2019-05-18T02:30:26.171Z,16.90
2019-05-18T02:32:58.040Z,17.22
2019-05-18T02:35:30.331Z,17.42
2019-05-18T02:38:16.812Z,17.77
2019-05-18T02:40:49.209Z,18.17
2019-05-18T02:43:21.271Z,18.50
2019-05-18T02:45:53.241Z,18.75
2019-05-18T02:48:26.062Z,18.94
2019-05-18T02:50:57.570Z,18.62
2019-05-18T02:53:29.409Z,18.25
2019-05-18T02:56:01.001Z,17.89
2019-05-18T02:58:32.849Z,17.72
2019-05-18T03:01:04.555Z,17.61
2019-05-18T03:03:36.387Z,17.60
2019-05-18T03:06:08.136Z,17.65
2019-05-18T03:08:39.610Z,17.90
2019-05-18T03:11:11.380Z,18.45
2019-05-18T03:13:42.990Z,19.60
2019-05-18T03:16:14.899Z,19.47
2019-05-18T03:18:46.699Z,19.70
2019-05-18T03:21:18.387Z,20.00
2019-05-18T03:23:49.807Z,19.87
2019-05-18T03:26:21.664Z,20.15
2019-05-18T03:28:53.144Z,20.89
2019-05-18T03:31:24.873Z,21.89
2019-05-18T03:33:57.610Z,22.84
2019-05-18T03:36:30.547Z,23.22
2019-05-18T03:39:02.095Z,24.39
2019-05-18T03:41:34.731Z,24.47
2019-05-18T03:44:06.534Z,24.84
2019-05-18T03:46:38.714Z,25.41
2019-05-18T03:49:25.339Z,25.15
2019-05-18T03:51:42.638Z,26.01
2019-05-18T03:54:14.187Z,25.67
2019-05-18T03:56:46.045Z,25.88
2019-05-18T03:59:17.731Z,26.00
2019-05-18T04:01:49.619Z,26.86
2019-05-18T04:04:21.044Z,26.98
2019-05-18T04:06:52.880Z,27.78
2019-05-18T04:09:24.484Z,27.74
2019-05-18T04:11:56.225Z,26.25
2019-05-18T04:14:28.040Z,26.80
2019-05-18T04:16:59.247Z,27.45
2019-05-18T04:19:45.446Z,27.32
2019-05-18T04:22:03.841Z,28.95
2019-05-18T04:24:35.541Z,30.71
2019-05-18T04:27:07.271Z,31.97
2019-05-18T04:29:38.751Z,31.93
2019-05-18T04:32:10.652Z,31.28
2019-05-18T04:34:42.407Z,31.37
2019-05-18T04:37:14.091Z,30.50
2019-05-18T04:39:45.147Z,30.35
2019-05-18T04:42:16.702Z,30.17
2019-05-18T04:44:47.945Z,29.63
2019-05-18T04:47:19.506Z,29.76
2019-05-18T04:50:04.402Z,30.51
2019-05-18T04:52:25.261Z,29.76
2019-05-18T04:54:56.614Z,29.96
2019-05-18T04:59:44.368Z,32.21
2019-05-18T05:02:16.302Z,32.63
2019-05-18T05:04:47.106Z,32.65
2019-05-18T05:07:18.890Z,31.40
2019-05-18T05:09:50.575Z,30.89
2019-05-18T05:12:22.730Z,31.67
2019-05-18T05:14:55.791Z,30.57
2019-05-18T05:17:27.623Z,31.44
2019-05-18T05:19:59.449Z,32.18
2019-05-18T05:22:31.517Z,32.54
2019-05-18T05:25:03.218Z,32.30
2019-05-18T05:27:35.113Z,32.75
2019-05-18T05:30:08.325Z,32.08
2019-05-18T05:32:40.065Z,32.64
2019-05-18T05:35:14.930Z,32.42
2019-05-18T05:37:46.831Z,32.55
2019-05-18T05:40:18.730Z,33.44
2019-05-18T05:42:49.972Z,33.69
2019-05-18T05:45:21.293Z,34.25
2019-05-18T05:47:52.771Z,33.48
2019-05-18T05:50:35.135Z,33.53
2019-05-18T05:52:57.924Z,33.97
2019-05-18T05:55:28.668Z,33.00
2019-05-18T05:58:00.285Z,33.34
2019-05-18T06:00:32.157Z,33.37
2019-05-18T06:03:03.434Z,32.43
2019-05-18T06:05:34.991Z,32.70
2019-05-18T06:08:06.719Z,33.76
2019-05-18T06:10:38.741Z,34.08
2019-05-18T06:13:10.419Z,34.41
2019-05-18T06:15:41.599Z,34.12
2019-05-18T06:18:13.935Z,33.67
2019-05-18T06:20:51.695Z,33.86
2019-05-18T06:23:19.297Z,32.47
2019-05-18T06:25:51.160Z,33.43
2019-05-18T06:28:22.684Z,33.97
2019-05-18T06:30:53.793Z,34.10
2019-05-18T06:33:25.099Z,34.37
2019-05-18T06:35:56.813Z,33.19
2019-05-18T06:38:28.333Z,33.20
2019-05-18T06:40:59.994Z,32.85
2019-05-18T06:43:31.987Z,35.01
2019-05-18T06:46:04.874Z,33.87
2019-05-18T06:48:36.883Z,35.19
2019-05-18T06:51:09.793Z,35.26
2019-05-18T06:53:42.187Z,35.76
2019-05-18T06:56:14.209Z,34.14
2019-05-18T06:58:47.358Z,34.02
2019-05-18T07:01:19.202Z,33.56
2019-05-18T07:03:50.967Z,33.48
2019-05-18T07:06:23.181Z,33.00
2019-05-18T07:08:54.990Z,33.84
2019-05-18T07:11:26.971Z,34.92
2019-05-18T07:13:58.719Z,34.89
2019-05-18T07:16:30.718Z,34.20
2019-05-18T07:19:02.468Z,34.11
2019-05-18T07:21:33.522Z,33.47
2019-05-18T07:24:05.129Z,33.74
2019-05-18T07:26:37.420Z,35.73
2019-05-18T07:29:09.330Z,35.94
2019-05-18T07:31:41.648Z,38.22
2019-05-18T07:34:13.244Z,37.51
2019-05-18T07:36:44.323Z,36.95
2019-05-18T07:39:15.988Z,34.81
2019-05-18T07:41:47.762Z,34.36
2019-05-18T07:44:19.298Z,35.94
2019-05-18T07:46:51.259Z,37.47
2019-05-18T07:49:22.972Z,36.76
2019-05-18T07:51:55.011Z,37.36
2019-05-18T07:54:26.724Z,36.91
2019-05-18T07:56:59.717Z,35.37
2019-05-18T07:59:31.294Z,35.42
2019-05-18T08:02:02.309Z,35.40
2019-05-18T08:04:33.683Z,35.06
2019-05-18T08:07:05.624Z,35.00
2019-05-18T08:09:37.078Z,34.18
2019-05-18T08:12:08.160Z,33.37
2019-05-18T08:14:39.844Z,33.76
2019-05-18T08:17:11.735Z,34.48
2019-05-18T08:19:43.445Z,33.35
2019-05-18T08:22:15.976Z,32.31
2019-05-18T08:24:46.941Z,29.36
2019-05-18T08:27:19.285Z,27.96
2019-05-18T08:29:50.329Z,27.02
2019-05-18T08:32:22.022Z,26.17
2019-05-18T08:34:52.816Z,25.89
2019-05-18T08:37:24.521Z,25.70
2019-05-18T08:39:56.130Z,25.81
2019-05-18T08:42:27.990Z,25.67
2019-05-18T08:45:00.905Z,25.81
2019-05-18T08:47:32.017Z,25.85
2019-05-18T08:50:03.372Z,25.93
2019-05-18T08:52:35.229Z,26.13
2019-05-18T08:55:06.469Z,26.01
2019-05-18T08:57:37.922Z,26.03
2019-05-18T09:00:11.217Z,26.08
2019-05-18T09:02:42.896Z,25.99
2019-05-18T09:05:14.827Z,25.92
2019-05-18T09:07:46.525Z,25.93
2019-05-18T09:10:18.382Z,25.85
2019-05-18T09:12:49.906Z,25.86
2019-05-18T09:15:22.276Z,26.01
2019-05-18T09:17:53.864Z,26.11
2019-05-18T09:20:25.508Z,26.18
2019-05-18T09:22:57.268Z,26.14
2019-05-18T09:25:28.889Z,26.05
2019-05-18T09:28:00.959Z,26.02
2019-05-18T09:30:32.160Z,26.07
2019-05-18T09:33:04.081Z,26.15
2019-05-18T09:35:36.783Z,26.27
2019-05-18T09:38:08.909Z,26.26
2019-05-18T09:40:40.892Z,26.02
2019-05-18T09:43:12.008Z,26.19
2019-05-18T09:45:43.611Z,26.05
2019-05-18T09:48:15.121Z,26.21
2019-05-18T09:50:46.899Z,26.18
2019-05-18T09:53:18.433Z,26.29
2019-05-18T09:55:50.285Z,26.25
2019-05-18T09:58:21.862Z,26.02
2019-05-18T10:00:53.814Z,26.28
2019-05-18T10:03:25.779Z,26.48
2019-05-18T10:05:57.732Z,26.45
2019-05-18T10:08:29.490Z,26.24
2019-05-18T10:11:01.257Z,26.18
2019-05-18T10:13:32.917Z,26.22
2019-05-18T10:16:04.867Z,26.22
2019-05-18T10:18:36.526Z,26.31
2019-05-18T10:21:08.666Z,26.35
2019-05-18T10:23:40.575Z,26.57
2019-05-18T10:26:13.337Z,26.40
2019-05-18T10:28:44.890Z,26.60
2019-05-18T10:31:16.580Z,26.56
2019-05-18T10:33:48.538Z,26.83
2019-05-18T10:36:20.480Z,26.59
2019-05-18T10:38:53.387Z,26.70
2019-05-18T10:41:25.349Z,26.56
2019-05-18T10:43:57.056Z,26.78
2019-05-18T10:46:28.837Z,26.51
2019-05-18T10:49:00.004Z,26.53
2019-05-18T10:51:31.731Z,26.60
2019-05-18T10:54:03.040Z,26.79
2019-05-18T10:56:34.640Z,26.51
2019-05-18T10:59:05.545Z,26.52
2019-05-18T11:01:37.299Z,26.49
2019-05-18T11:04:09.124Z,26.36
2019-05-18T11:06:40.945Z,26.46
2019-05-18T11:09:12.943Z,26.70
2019-05-18T11:11:44.476Z,26.75
2019-05-18T11:14:18.835Z,26.90
2019-05-18T11:16:49.636Z,26.86
2019-05-18T11:19:22.435Z,26.84
2019-05-18T11:21:53.779Z,26.81
2019-05-18T11:24:25.246Z,26.94
2019-05-18T11:26:57.091Z,27.02
2019-05-18T11:29:28.144Z,26.96
2019-05-18T11:31:59.758Z,26.97
2019-05-18T11:34:31.508Z,26.98
2019-05-18T11:37:03.421Z,27.05
2019-05-18T11:39:35.300Z,27.11
2019-05-18T11:42:07.131Z,26.96
2019-05-18T11:44:38.683Z,27.03
2019-05-18T11:47:10.086Z,26.85
2019-05-18T11:49:41.659Z,27.00
2019-05-18T11:52:13.895Z,27.22
2019-05-18T11:54:45.885Z,27.28
2019-05-18T11:57:16.918Z,27.08
2019-05-18T11:59:48.729Z,27.04
2019-05-18T12:02:19.673Z,27.30
2019-05-18T12:04:51.486Z,27.15
2019-05-18T12:07:23.160Z,27.22
2019-05-18T12:09:54.934Z,27.25
2019-05-18T12:12:25.982Z,27.08
2019-05-18T12:14:57.705Z,27.30
2019-05-18T12:17:28.738Z,27.13
2019-05-18T12:20:00.158Z,27.14
2019-05-18T12:22:31.945Z,27.32
2019-05-18T12:25:03.822Z,27.21
2019-05-18T12:27:35.799Z,27.13
2019-05-18T12:30:08.968Z,27.02
2019-05-18T12:32:40.921Z,27.33
2019-05-18T12:35:13.648Z,27.34
2019-05-18T12:37:45.356Z,27.32
2019-05-18T12:40:20.199Z,27.24
2019-05-18T12:42:51.955Z,27.37
2019-05-18T12:45:23.088Z,27.25
2019-05-18T12:47:54.768Z,27.28
2019-05-18T12:50:25.803Z,27.33
2019-05-18T12:52:57.448Z,27.12
2019-05-18T12:55:29.047Z,27.26
2019-05-18T12:58:00.820Z,27.14
2019-05-18T13:00:32.759Z,27.04
2019-05-18T13:03:04.856Z,27.02
2019-05-18T13:05:35.751Z,27.10
2019-05-18T13:08:07.684Z,26.96
2019-05-18T13:10:38.754Z,26.98
2019-05-18T13:13:10.168Z,26.98
2019-05-18T13:15:41.834Z,27.01
2019-05-18T13:18:13.523Z,26.92
2019-05-18T13:20:45.349Z,27.01
2019-05-18T13:23:16.833Z,27.01
2019-05-18T13:25:48.569Z,27.09
2019-05-18T13:28:19.836Z,27.09
2019-05-18T13:30:51.803Z,27.06
2019-05-18T13:33:23.418Z,27.08
2019-05-18T13:35:55.192Z,27.20
2019-05-18T13:38:26.730Z,27.30
2019-05-18T13:40:58.463Z,27.36
2019-05-18T13:43:29.583Z,27.23
2019-05-18T13:46:01.222Z,27.15
2019-05-18T13:48:33.166Z,27.21
2019-05-18T13:51:05.155Z,27.27
2019-05-18T13:53:37.138Z,27.33
2019-05-18T13:56:08.089Z,27.40
2019-05-18T13:58:39.613Z,27.60
2019-05-18T14:01:11.734Z,27.59
2019-05-18T14:03:42.811Z,27.71
2019-05-18T14:06:14.364Z,27.69
2019-05-18T14:08:46.090Z,27.50
2019-05-18T14:11:17.911Z,27.23
2019-05-18T14:13:50.080Z,27.16
2019-05-18T14:16:22.075Z,27.08
2019-05-18T14:18:54.034Z,27.14
2019-05-18T14:21:25.616Z,27.18
2019-05-18T14:23:57.555Z,27.07
2019-05-18T14:26:29.109Z,27.09
2019-05-18T14:29:01.379Z,27.09
2019-05-18T14:31:33.301Z,27.20
2019-05-18T14:34:04.899Z,27.17
2019-05-18T14:36:36.549Z,27.03
2019-05-18T14:39:08.660Z,27.05
2019-05-18T14:41:42.322Z,26.99
2019-05-18T14:44:12.656Z,26.95
2019-05-18T14:46:44.446Z,26.93
2019-05-18T14:49:15.887Z,26.89
2019-05-18T14:51:47.318Z,26.89
2019-05-18T14:54:19.099Z,26.82
2019-05-18T14:56:50.611Z,26.85
2019-05-18T14:59:22.673Z,26.95
2019-05-18T15:01:54.274Z,26.81
2019-05-18T15:04:26.454Z,26.59
2019-05-18T15:06:58.196Z,26.55
2019-05-18T15:09:30.022Z,26.53
2019-05-18T15:12:00.989Z,26.44
2019-05-18T15:14:32.808Z,26.47
2019-05-18T15:17:04.317Z,26.44
2019-05-18T15:19:37.022Z,26.49
2019-05-18T15:22:10.345Z,26.40
2019-05-18T15:24:42.206Z,26.35
2019-05-18T15:27:13.862Z,26.47
2019-05-18T15:29:45.852Z,26.30
2019-05-18T15:32:16.910Z,26.24
2019-05-18T15:34:48.721Z,26.13
2019-05-18T15:37:20.695Z,26.02
2019-05-18T15:39:52.652Z,26.06
2019-05-18T15:42:27.484Z,25.99
2019-05-18T15:44:59.453Z,25.98
2019-05-18T15:47:31.093Z,25.90
2019-05-18T15:50:02.919Z,25.81
2019-05-18T15:52:34.506Z,25.75
2019-05-18T15:55:10.246Z,25.71
2019-05-18T15:57:42.116Z,25.68
2019-05-18T16:00:15.256Z,25.56
2019-05-18T16:02:46.888Z,25.49
2019-05-18T16:05:18.934Z,25.45
2019-05-18T16:07:50.681Z,25.42
2019-05-18T16:10:24.116Z,25.32
2019-05-18T16:12:55.745Z,25.23
2019-05-18T16:15:27.539Z,25.18
2019-05-18T16:17:58.918Z,25.10
2019-05-18T16:20:30.740Z,25.08
2019-05-18T16:23:02.419Z,25.02
2019-05-18T16:25:34.529Z,24.91
2019-05-18T16:28:05.600Z,24.86
2019-05-18T16:30:37.328Z,24.71
2019-05-18T16:33:09.275Z,24.62
2019-05-18T16:35:40.924Z,24.58
2019-05-18T16:38:13.842Z,24.47
2019-05-18T16:40:45.275Z,24.40
2019-05-18T16:43:19.499Z,24.32
2019-05-18T16:45:51.078Z,24.21
2019-05-18T16:48:22.741Z,24.09
2019-05-18T16:50:54.678Z,24.04
2019-05-18T16:53:26.277Z,23.92
2019-05-18T16:55:58.300Z,23.93
2019-05-18T16:58:29.955Z,23.84
2019-05-18T17:01:01.628Z,23.81
2019-05-18T17:03:33.428Z,23.72
2019-05-18T17:06:05.220Z,23.64
2019-05-18T17:08:36.870Z,23.62
2019-05-18T17:11:08.862Z,23.57
2019-05-18T17:13:40.386Z,23.49
2019-05-18T17:16:12.086Z,23.49
2019-05-18T17:18:43.905Z,23.44
2019-05-18T17:21:15.697Z,23.35
2019-05-18T17:23:47.211Z,23.38
2019-05-18T17:26:20.102Z,23.35
2019-05-18T17:28:51.169Z,23.28
2019-05-18T17:31:24.558Z,23.17
2019-05-18T17:33:56.848Z,23.12
2019-05-18T17:36:28.686Z,23.10
2019-05-18T17:39:00.227Z,23.02
2019-05-18T17:41:32.384Z,23.01
2019-05-18T17:44:04.149Z,22.90
2019-05-18T17:46:36.011Z,22.89
2019-05-18T17:49:07.631Z,22.86
2019-05-18T17:51:39.226Z,22.79
2019-05-18T17:54:11.170Z,22.71
2019-05-18T17:56:42.879Z,22.67
2019-05-18T17:59:14.898Z,22.63
2019-05-18T18:01:46.459Z,22.55
2019-05-18T18:04:18.299Z,22.44
2019-05-18T18:06:50.065Z,22.44
2019-05-18T18:09:22.180Z,22.37
2019-05-18T18:11:53.703Z,22.34
2019-05-18T18:14:25.599Z,22.28
2019-05-18T18:16:57.471Z,22.15
2019-05-18T18:19:29.524Z,22.17
2019-05-18T18:22:00.963Z,22.09
2019-05-18T18:24:32.785Z,22.09
2019-05-18T18:27:04.234Z,22.00
2019-05-18T18:29:36.127Z,21.91
2019-05-18T18:32:07.915Z,21.88
2019-05-18T18:34:39.618Z,21.81
2019-05-18T18:37:11.568Z,21.74
2019-05-18T18:39:43.329Z,21.69
2019-05-18T18:42:15.551Z,21.65
2019-05-18T18:44:47.151Z,21.59
2019-05-18T18:47:19.217Z,21.48
2019-05-18T18:49:51.084Z,21.42
2019-05-18T18:52:22.869Z,21.38
2019-05-18T18:54:54.592Z,21.26
2019-05-18T18:57:40.054Z,21.17
2019-05-18T18:59:59.855Z,21.09
2019-05-18T19:02:31.307Z,21.07
2019-05-18T19:05:03.471Z,21.00
2019-05-18T19:07:35.528Z,20.90
2019-05-18T19:10:08.674Z,20.90
2019-05-18T19:12:41.195Z,20.83
2019-05-18T19:15:13.165Z,20.79
2019-05-18T19:17:44.906Z,20.77
2019-05-18T19:20:16.413Z,20.70
2019-05-18T19:22:48.307Z,20.67
2019-05-18T19:25:20.098Z,20.62
2019-05-18T19:27:55.316Z,20.56
2019-05-18T19:30:27.072Z,20.43
2019-05-18T19:32:58.981Z,20.42
2019-05-18T19:35:30.605Z,20.37
2019-05-18T19:38:02.382Z,20.34
2019-05-18T19:40:33.931Z,20.30
2019-05-18T19:43:06.183Z,20.33
2019-05-18T19:45:37.740Z,20.23
2019-05-18T19:48:10.336Z,20.19
2019-05-18T19:50:42.085Z,20.16
2019-05-18T19:53:13.943Z,20.13
2019-05-18T19:55:45.698Z,20.06
2019-05-18T19:58:17.791Z,20.07
2019-05-18T20:00:49.516Z,19.81
2019-05-18T20:03:21.373Z,19.96
2019-05-18T20:05:53.234Z,19.88
2019-05-18T20:08:25.145Z,19.87
2019-05-18T20:10:56.771Z,19.83
2019-05-18T20:13:28.929Z,19.78
2019-05-18T20:16:00.470Z,19.76
2019-05-18T20:18:33.303Z,19.69
2019-05-18T20:21:05.238Z,19.61
2019-05-18T20:23:37.012Z,19.59
2019-05-18T20:26:08.595Z,19.49
2019-05-18T20:28:40.710Z,19.45
2019-05-18T20:31:12.492Z,19.42
2019-05-18T20:33:44.013Z,19.33
2019-05-18T20:36:15.969Z,19.29
2019-05-18T20:38:47.419Z,19.16
2019-05-18T20:41:19.253Z,19.12
2019-05-18T20:43:51.138Z,19.10
2019-05-18T20:46:24.053Z,19.09
2019-05-18T20:48:55.780Z,18.95
2019-05-18T20:51:27.739Z,18.91
2019-05-18T20:53:59.395Z,18.84
2019-05-18T20:56:31.502Z,18.81
2019-05-18T20:59:03.331Z,18.76
2019-05-18T21:01:35.509Z,18.64
2019-05-18T21:04:08.069Z,18.64
2019-05-18T21:06:40.104Z,18.56
2019-05-18T21:09:11.700Z,18.47
2019-05-18T21:11:43.460Z,18.42
2019-05-18T21:14:15.315Z,18.38
2019-05-18T21:16:47.378Z,18.37
2019-05-18T21:19:19.243Z,18.32
2019-05-18T21:21:51.098Z,18.23
2019-05-18T21:24:22.653Z,18.23
2019-05-18T21:26:54.546Z,18.18
2019-05-18T21:29:26.160Z,18.11
2019-05-18T21:31:58.274Z,18.11
2019-05-18T21:34:29.625Z,18.03
2019-05-18T21:37:01.194Z,17.95
2019-05-18T21:39:32.679Z,17.92
2019-05-18T21:42:04.642Z,17.89
2019-05-18T21:44:36.397Z,17.59
2019-05-18T21:47:08.292Z,17.77
2019-05-18T21:49:40.127Z,17.67
2019-05-18T21:52:12.100Z,17.60
2019-05-18T21:54:43.412Z,17.52
2019-05-18T21:57:15.121Z,17.47
2019-05-18T21:59:46.756Z,17.48
2019-05-18T22:02:18.716Z,17.42
2019-05-18T22:04:50.274Z,17.38
2019-05-18T22:07:22.138Z,17.38
2019-05-18T22:09:54.043Z,17.33
2019-05-18T22:12:27.482Z,17.34
2019-05-18T22:14:59.292Z,17.34
2019-05-18T22:17:30.999Z,17.30
2019-05-18T22:20:03.114Z,17.24
2019-05-18T22:22:34.856Z,17.15
2019-05-18T22:25:06.891Z,17.10
2019-05-18T22:27:38.748Z,17.04
2019-05-18T22:30:10.864Z,17.00
2019-05-18T22:32:42.512Z,16.96
2019-05-18T22:35:15.401Z,16.95
2019-05-18T22:37:48.414Z,16.86
2019-05-18T22:40:20.098Z,16.83
2019-05-18T22:42:51.852Z,16.78
2019-05-18T22:45:23.746Z,16.75
2019-05-18T22:47:55.487Z,16.70
2019-05-18T22:50:27.280Z,16.64
2019-05-18T22:52:58.768Z,16.58
2019-05-18T22:55:30.775Z,16.55
2019-05-18T22:58:02.708Z,16.50
2019-05-18T23:00:34.790Z,16.47
2019-05-18T23:03:06.532Z,16.40
2019-05-18T23:05:38.361Z,16.38
2019-05-18T23:08:09.935Z,16.33
2019-05-18T23:10:41.892Z,16.30
2019-05-18T23:13:13.452Z,16.30
2019-05-18T23:15:45.169Z,16.23
2019-05-18T23:18:16.877Z,16.24
2019-05-18T23:20:48.771Z,16.17
2019-05-18T23:23:20.608Z,16.01
2019-05-18T23:25:52.203Z,15.87
2019-05-18T23:28:24.043Z,15.76
2019-05-18T23:30:56.380Z,15.76
2019-05-18T23:33:28.135Z,15.74
2019-05-18T23:36:01.247Z,15.64
2019-05-18T23:38:33.192Z,15.58
2019-05-18T23:41:04.744Z,15.56
2019-05-18T23:43:36.658Z,15.59
2019-05-18T23:46:08.471Z,15.59
2019-05-18T23:48:40.113Z,15.62
2019-05-18T23:51:11.802Z,15.68
2019-05-18T23:53:43.529Z,15.67
2019-05-18T23:56:16.280Z,15.71
2019-05-18T23:58:47.972Z,15.74
